sensor_id;sensor_type;location;lat;lon;timestamp;temperature;humidity
21115;DHT22;10715;48.546;9.896;2023-01-15T00:01:23;8.30;99.90
21115;DHT22;10715;48.546;9.896;2023-01-15T00:03:51;8.20;99.90
21115;DHT22;10715;48.546;9.896;2023-01-15T00:06:17;8.20;99.90
21115;DHT22;10715;48.546;9.896;2023-01-15T00:08:43;8.20;99.90
21115;DHT22;10715;48.546;9.896;2023-01-15T00:11:09;8.10;99.90
21115;DHT22;10715;48.546;9.896;2023-01-15T00:13:35;8.10;99.90
21115;DHT22;10715;48.546;9.896;2023-01-15T00:18:37;8.00;99.90
21115;DHT22;10715;48.546;9.896;2023-01-15T00:21:06;7.90;99.90
21115;DHT22;10715;48.546;9.896;2023-01-15T00:23:32;8.00;99.90
21115;DHT22;10715;48.546;9.896;2023-01-15T00:26:18;8.00;99.90
21115;DHT22;10715;48.546;9.896;2023-01-15T00:29:03;8.00;99.90
21115;DHT22;10715;48.546;9.896;2023-01-15T00:31:29;8.00;99.90
21115;DHT22;10715;48.546;9.896;2023-01-15T00:33:56;8.00;99.90
21115;DHT22;10715;48.546;9.896;2023-01-15T00:36:22;7.90;99.90
21115;DHT22;10715;48.546;9.896;2023-01-15T00:38:47;7.90;99.90
21115;DHT22;10715;48.546;9.896;2023-01-15T00:41:13;8.00;99.90
21115;DHT22;10715;48.546;9.896;2023-01-15T00:43:39;7.90;99.90
21115;DHT22;10715;48.546;9.896;2023-01-15T00:46:04;7.90;99.90
21115;DHT22;10715;48.546;9.896;2023-01-15T00:48:33;7.80;99.90
21115;DHT22;10715;48.546;9.896;2023-01-15T00:50:59;7.80;99.90
21115;DHT22;10715;48.546;9.896;2023-01-15T00:53:25;7.80;99.90
21115;DHT22;10715;48.546;9.896;2023-01-15T00:55:50;7.80;99.90
21115;DHT22;10715;48.546;9.896;2023-01-15T00:58:16;7.80;99.90
21115;DHT22;10715;48.546;9.896;2023-01-15T01:00:42;7.80;99.90
21115;DHT22;10715;48.546;9.896;2023-01-15T01:03:08;7.80;99.90
21115;DHT22;10715;48.546;9.896;2023-01-15T01:05:34;7.80;99.90
21115;DHT22;10715;48.546;9.896;2023-01-15T01:07:59;7.80;99.90
21115;DHT22;10715;48.546;9.896;2023-01-15T01:10:26;7.80;99.90
21115;DHT22;10715;48.546;9.896;2023-01-15T01:12:52;7.80;99.90
21115;DHT22;10715;48.546;9.896;2023-01-15T01:15:22;7.80;99.90
21115;DHT22;10715;48.546;9.896;2023-01-15T01:17:48;7.80;99.90
21115;DHT22;10715;48.546;9.896;2023-01-15T01:20:15;7.80;99.90
21115;DHT22;10715;48.546;9.896;2023-01-15T01:22:41;7.80;99.90
21115;DHT22;10715;48.546;9.896;2023-01-15T01:25:08;7.80;99.90
21115;DHT22;10715;48.546;9.896;2023-01-15T01:27:34;7.80;99.90
21115;DHT22;10715;48.546;9.896;2023-01-15T01:30:00;7.70;99.90
21115;DHT22;10715;48.546;9.896;2023-01-15T01:32:25;7.70;99.90
21115;DHT22;10715;48.546;9.896;2023-01-15T01:34:51;7.70;99.90
21115;DHT22;10715;48.546;9.896;2023-01-15T01:37:17;7.80;99.90
21115;DHT22;10715;48.546;9.896;2023-01-15T01:39:42;7.80;99.90
21115;DHT22;10715;48.546;9.896;2023-01-15T01:42:12;7.80;99.90
21115;DHT22;10715;48.546;9.896;2023-01-15T01:47:19;7.80;99.90
21115;DHT22;10715;48.546;9.896;2023-01-15T01:49:50;7.80;99.90
21115;DHT22;10715;48.546;9.896;2023-01-15T01:52:32;7.80;99.90
21115;DHT22;10715;48.546;9.896;2023-01-15T01:55:01;7.80;99.90
21115;DHT22;10715;48.546;9.896;2023-01-15T01:57:27;7.80;99.90
21115;DHT22;10715;48.546;9.896;2023-01-15T01:59:54;7.90;99.90
21115;DHT22;10715;48.546;9.896;2023-01-15T02:02:21;7.80;99.90
21115;DHT22;10715;48.546;9.896;2023-01-15T02:04:47;7.70;99.90
21115;DHT22;10715;48.546;9.896;2023-01-15T02:07:14;7.50;99.90
21115;DHT22;10715;48.546;9.896;2023-01-15T02:09:40;7.50;99.90
21115;DHT22;10715;48.546;9.896;2023-01-15T02:12:16;7.40;99.90
21115;DHT22;10715;48.546;9.896;2023-01-15T02:17:43;7.40;99.90
21115;DHT22;10715;48.546;9.896;2023-01-15T02:28:35;7.50;99.90
21115;DHT22;10715;48.546;9.896;2023-01-15T02:31:28;7.40;99.90
21115;DHT22;10715;48.546;9.896;2023-01-15T02:34:26;7.40;99.90
21115;DHT22;10715;48.546;9.896;2023-01-15T02:36:59;7.50;99.90
21115;DHT22;10715;48.546;9.896;2023-01-15T02:39:27;7.50;99.90
21115;DHT22;10715;48.546;9.896;2023-01-15T02:41:58;7.50;99.90
21115;DHT22;10715;48.546;9.896;2023-01-15T02:44:28;7.60;99.90
21115;DHT22;10715;48.546;9.896;2023-01-15T02:46:57;7.60;99.90
21115;DHT22;10715;48.546;9.896;2023-01-15T02:49:24;7.60;99.90
21115;DHT22;10715;48.546;9.896;2023-01-15T02:51:59;7.70;99.90
21115;DHT22;10715;48.546;9.896;2023-01-15T02:54:29;7.70;99.90
21115;DHT22;10715;48.546;9.896;2023-01-15T02:56:59;7.70;99.90
21115;DHT22;10715;48.546;9.896;2023-01-15T02:59:32;7.70;99.90
21115;DHT22;10715;48.546;9.896;2023-01-15T03:02:00;7.70;99.90
21115;DHT22;10715;48.546;9.896;2023-01-15T03:07:28;7.80;99.90
21115;DHT22;10715;48.546;9.896;2023-01-15T03:09:57;7.80;99.90
21115;DHT22;10715;48.546;9.896;2023-01-15T03:15:37;7.80;99.90
21115;DHT22;10715;48.546;9.896;2023-01-15T03:18:24;7.80;99.90
21115;DHT22;10715;48.546;9.896;2023-01-15T03:20:58;7.80;99.90
21115;DHT22;10715;48.546;9.896;2023-01-15T03:23:25;7.80;99.90
21115;DHT22;10715;48.546;9.896;2023-01-15T03:25:53;7.80;99.90
21115;DHT22;10715;48.546;9.896;2023-01-15T03:28:25;7.80;99.90
21115;DHT22;10715;48.546;9.896;2023-01-15T03:30:51;7.80;99.90
21115;DHT22;10715;48.546;9.896;2023-01-15T03:33:17;7.90;99.90
21115;DHT22;10715;48.546;9.896;2023-01-15T03:35:58;7.90;99.90
21115;DHT22;10715;48.546;9.896;2023-01-15T03:38:30;7.90;99.90
21115;DHT22;10715;48.546;9.896;2023-01-15T03:50:07;7.90;99.90
21115;DHT22;10715;48.546;9.896;2023-01-15T03:52:55;7.90;99.90
21115;DHT22;10715;48.546;9.896;2023-01-15T03:58:01;7.90;99.90
21115;DHT22;10715;48.546;9.896;2023-01-15T04:00:43;7.80;99.90
21115;DHT22;10715;48.546;9.896;2023-01-15T04:03:13;7.80;99.90
21115;DHT22;10715;48.546;9.896;2023-01-15T04:05:41;7.80;99.90
21115;DHT22;10715;48.546;9.896;2023-01-15T04:08:08;7.80;99.90
21115;DHT22;10715;48.546;9.896;2023-01-15T04:10:34;7.90;99.90
21115;DHT22;10715;48.546;9.896;2023-01-15T04:13:00;7.90;99.90
21115;DHT22;10715;48.546;9.896;2023-01-15T04:15:26;8.00;99.90
21115;DHT22;10715;48.546;9.896;2023-01-15T04:17:51;8.00;99.90
21115;DHT22;10715;48.546;9.896;2023-01-15T04:20:17;8.00;99.90
21115;DHT22;10715;48.546;9.896;2023-01-15T04:22:43;8.00;99.90
21115;DHT22;10715;48.546;9.896;2023-01-15T04:25:09;8.00;99.90
21115;DHT22;10715;48.546;9.896;2023-01-15T04:27:35;8.00;99.90
21115;DHT22;10715;48.546;9.896;2023-01-15T04:30:01;7.90;99.90
21115;DHT22;10715;48.546;9.896;2023-01-15T04:32:26;7.80;99.90
21115;DHT22;10715;48.546;9.896;2023-01-15T04:34:52;7.70;99.90
21115;DHT22;10715;48.546;9.896;2023-01-15T04:37:18;7.70;99.90
21115;DHT22;10715;48.546;9.896;2023-01-15T04:39:45;7.70;99.90
21115;DHT22;10715;48.546;9.896;2023-01-15T04:42:14;7.70;99.90
21115;DHT22;10715;48.546;9.896;2023-01-15T04:44:58;7.70;99.90
21115;DHT22;10715;48.546;9.896;2023-01-15T04:47:24;7.70;99.90
21115;DHT22;10715;48.546;9.896;2023-01-15T04:49:50;7.70;99.90
21115;DHT22;10715;48.546;9.896;2023-01-15T04:52:16;7.60;99.90
21115;DHT22;10715;48.546;9.896;2023-01-15T04:54:41;7.60;99.90
21115;DHT22;10715;48.546;9.896;2023-01-15T04:57:07;7.70;99.90
21115;DHT22;10715;48.546;9.896;2023-01-15T04:59:33;7.70;99.90
21115;DHT22;10715;48.546;9.896;2023-01-15T05:01:58;7.70;99.90
21115;DHT22;10715;48.546;9.896;2023-01-15T05:04:25;7.80;99.90
21115;DHT22;10715;48.546;9.896;2023-01-15T05:06:50;7.90;99.90
21115;DHT22;10715;48.546;9.896;2023-01-15T05:09:17;7.90;99.90
21115;DHT22;10715;48.546;9.896;2023-01-15T05:11:43;7.90;99.90
21115;DHT22;10715;48.546;9.896;2023-01-15T05:14:09;7.90;99.90
21115;DHT22;10715;48.546;9.896;2023-01-15T05:16:34;7.90;99.90
21115;DHT22;10715;48.546;9.896;2023-01-15T05:19:04;8.00;99.90
21115;DHT22;10715;48.546;9.896;2023-01-15T05:21:33;8.00;99.90
21115;DHT22;10715;48.546;9.896;2023-01-15T05:24:01;8.00;99.90
21115;DHT22;10715;48.546;9.896;2023-01-15T05:26:29;8.00;99.90
21115;DHT22;10715;48.546;9.896;2023-01-15T05:28:57;8.10;99.90
21115;DHT22;10715;48.546;9.896;2023-01-15T05:31:23;8.10;99.90
21115;DHT22;10715;48.546;9.896;2023-01-15T05:33:50;8.10;99.90
21115;DHT22;10715;48.546;9.896;2023-01-15T05:36:19;8.10;99.90
21115;DHT22;10715;48.546;9.896;2023-01-15T05:38:45;8.00;99.90
21115;DHT22;10715;48.546;9.896;2023-01-15T05:41:16;7.90;99.90
21115;DHT22;10715;48.546;9.896;2023-01-15T05:44:04;7.90;99.90
21115;DHT22;10715;48.546;9.896;2023-01-15T05:46:30;7.80;99.90
21115;DHT22;10715;48.546;9.896;2023-01-15T05:49:01;7.70;99.90
21115;DHT22;10715;48.546;9.896;2023-01-15T05:51:28;7.60;99.90
21115;DHT22;10715;48.546;9.896;2023-01-15T05:53:55;7.50;99.90
21115;DHT22;10715;48.546;9.896;2023-01-15T05:56:21;7.50;99.90
21115;DHT22;10715;48.546;9.896;2023-01-15T05:58:47;7.40;99.90
21115;DHT22;10715;48.546;9.896;2023-01-15T06:01:12;7.40;99.90
21115;DHT22;10715;48.546;9.896;2023-01-15T06:03:38;7.30;99.90
21115;DHT22;10715;48.546;9.896;2023-01-15T06:06:09;7.30;99.90
21115;DHT22;10715;48.546;9.896;2023-01-15T06:08:35;7.30;99.90
21115;DHT22;10715;48.546;9.896;2023-01-15T06:11:01;7.30;99.90
21115;DHT22;10715;48.546;9.896;2023-01-15T06:13:27;7.30;99.90
21115;DHT22;10715;48.546;9.896;2023-01-15T06:15:52;7.40;99.90
21115;DHT22;10715;48.546;9.896;2023-01-15T06:18:18;7.40;99.90
21115;DHT22;10715;48.546;9.896;2023-01-15T06:20:44;7.30;99.90
21115;DHT22;10715;48.546;9.896;2023-01-15T06:23:10;7.30;99.90
21115;DHT22;10715;48.546;9.896;2023-01-15T06:25:36;7.30;99.90
21115;DHT22;10715;48.546;9.896;2023-01-15T06:28:05;7.30;99.90
21115;DHT22;10715;48.546;9.896;2023-01-15T06:30:33;7.30;99.90
21115;DHT22;10715;48.546;9.896;2023-01-15T06:32:59;7.20;99.90
21115;DHT22;10715;48.546;9.896;2023-01-15T06:35:25;7.20;99.90
21115;DHT22;10715;48.546;9.896;2023-01-15T06:37:50;7.20;99.90
21115;DHT22;10715;48.546;9.896;2023-01-15T06:40:16;7.20;99.90
21115;DHT22;10715;48.546;9.896;2023-01-15T06:42:42;7.20;99.90
21115;DHT22;10715;48.546;9.896;2023-01-15T06:45:32;7.20;99.90
21115;DHT22;10715;48.546;9.896;2023-01-15T06:48:19;7.10;99.90
21115;DHT22;10715;48.546;9.896;2023-01-15T06:50:45;7.10;99.90
21115;DHT22;10715;48.546;9.896;2023-01-15T06:53:10;7.10;99.90
21115;DHT22;10715;48.546;9.896;2023-01-15T06:55:38;7.10;99.90
21115;DHT22;10715;48.546;9.896;2023-01-15T06:58:03;7.10;99.90
21115;DHT22;10715;48.546;9.896;2023-01-15T07:00:29;7.00;99.90
21115;DHT22;10715;48.546;9.896;2023-01-15T07:02:54;7.00;99.90
21115;DHT22;10715;48.546;9.896;2023-01-15T07:05:20;7.00;99.90
21115;DHT22;10715;48.546;9.896;2023-01-15T07:07:46;7.00;99.90
21115;DHT22;10715;48.546;9.896;2023-01-15T07:10:12;7.00;99.90
21115;DHT22;10715;48.546;9.896;2023-01-15T07:12:37;7.00;99.90
21115;DHT22;10715;48.546;9.896;2023-01-15T07:15:03;7.00;99.90
21115;DHT22;10715;48.546;9.896;2023-01-15T07:17:29;7.00;99.90
21115;DHT22;10715;48.546;9.896;2023-01-15T07:19:56;7.00;99.90
21115;DHT22;10715;48.546;9.896;2023-01-15T07:22:21;6.90;99.90
21115;DHT22;10715;48.546;9.896;2023-01-15T07:24:47;6.80;99.90
21115;DHT22;10715;48.546;9.896;2023-01-15T07:27:13;6.60;99.90
21115;DHT22;10715;48.546;9.896;2023-01-15T07:29:38;6.40;99.90
21115;DHT22;10715;48.546;9.896;2023-01-15T07:32:05;6.30;99.90
21115;DHT22;10715;48.546;9.896;2023-01-15T07:34:31;6.10;99.90
21115;DHT22;10715;48.546;9.896;2023-01-15T07:36:56;5.90;99.90
21115;DHT22;10715;48.546;9.896;2023-01-15T07:39:22;5.80;99.90
21115;DHT22;10715;48.546;9.896;2023-01-15T07:41:48;5.60;99.90
21115;DHT22;10715;48.546;9.896;2023-01-15T07:44:32;5.60;99.90
21115;DHT22;10715;48.546;9.896;2023-01-15T07:47:19;5.50;99.90
21115;DHT22;10715;48.546;9.896;2023-01-15T07:50:06;5.40;99.90
21115;DHT22;10715;48.546;9.896;2023-01-15T07:52:31;5.30;99.90
21115;DHT22;10715;48.546;9.896;2023-01-15T07:54:57;5.20;99.90
21115;DHT22;10715;48.546;9.896;2023-01-15T07:57:23;5.20;99.90
21115;DHT22;10715;48.546;9.896;2023-01-15T07:59:49;5.00;99.90
21115;DHT22;10715;48.546;9.896;2023-01-15T08:02:16;5.00;99.90
21115;DHT22;10715;48.546;9.896;2023-01-15T08:04:42;4.90;99.90
21115;DHT22;10715;48.546;9.896;2023-01-15T08:07:07;4.90;99.90
21115;DHT22;10715;48.546;9.896;2023-01-15T08:09:33;4.80;99.90
21115;DHT22;10715;48.546;9.896;2023-01-15T08:12:00;4.80;99.90
21115;DHT22;10715;48.546;9.896;2023-01-15T08:14:45;4.70;99.90
21115;DHT22;10715;48.546;9.896;2023-01-15T08:17:33;4.70;99.90
21115;DHT22;10715;48.546;9.896;2023-01-15T08:19:59;4.60;99.90
21115;DHT22;10715;48.546;9.896;2023-01-15T08:22:25;4.60;99.90
21115;DHT22;10715;48.546;9.896;2023-01-15T08:24:51;4.50;99.90
21115;DHT22;10715;48.546;9.896;2023-01-15T08:27:16;4.50;99.90
21115;DHT22;10715;48.546;9.896;2023-01-15T08:29:42;4.30;99.90
21115;DHT22;10715;48.546;9.896;2023-01-15T08:32:08;4.10;99.90
21115;DHT22;10715;48.546;9.896;2023-01-15T08:34:34;4.00;99.90
21115;DHT22;10715;48.546;9.896;2023-01-15T08:36:59;3.90;99.90
21115;DHT22;10715;48.546;9.896;2023-01-15T08:39:26;3.70;99.90
21115;DHT22;10715;48.546;9.896;2023-01-15T08:41:53;3.60;99.90
21115;DHT22;10715;48.546;9.896;2023-01-15T08:44:19;3.50;99.90
21115;DHT22;10715;48.546;9.896;2023-01-15T08:46:46;3.50;99.90
21115;DHT22;10715;48.546;9.896;2023-01-15T08:49:12;3.40;99.90
21115;DHT22;10715;48.546;9.896;2023-01-15T08:51:38;3.40;99.90
21115;DHT22;10715;48.546;9.896;2023-01-15T08:54:04;3.40;99.90
21115;DHT22;10715;48.546;9.896;2023-01-15T08:56:30;3.30;99.90
21115;DHT22;10715;48.546;9.896;2023-01-15T08:58:55;3.30;99.90
21115;DHT22;10715;48.546;9.896;2023-01-15T09:01:21;3.20;99.90
21115;DHT22;10715;48.546;9.896;2023-01-15T09:03:47;3.20;99.90
21115;DHT22;10715;48.546;9.896;2023-01-15T09:06:12;3.20;99.90
21115;DHT22;10715;48.546;9.896;2023-01-15T09:08:38;3.30;99.90
21115;DHT22;10715;48.546;9.896;2023-01-15T09:11:06;3.30;99.90
21115;DHT22;10715;48.546;9.896;2023-01-15T09:13:35;3.30;99.90
21115;DHT22;10715;48.546;9.896;2023-01-15T09:16:04;3.30;99.90
21115;DHT22;10715;48.546;9.896;2023-01-15T09:18:30;3.30;99.90
21115;DHT22;10715;48.546;9.896;2023-01-15T09:20:55;3.30;99.90
21115;DHT22;10715;48.546;9.896;2023-01-15T09:23:22;3.30;99.90
21115;DHT22;10715;48.546;9.896;2023-01-15T09:25:56;3.30;99.90
21115;DHT22;10715;48.546;9.896;2023-01-15T09:28:22;3.30;99.90
21115;DHT22;10715;48.546;9.896;2023-01-15T09:30:48;3.30;99.90
21115;DHT22;10715;48.546;9.896;2023-01-15T09:33:14;3.30;99.90
21115;DHT22;10715;48.546;9.896;2023-01-15T09:35:41;3.40;99.90
21115;DHT22;10715;48.546;9.896;2023-01-15T09:38:12;3.40;99.90
21115;DHT22;10715;48.546;9.896;2023-01-15T09:43:28;3.50;99.90
21115;DHT22;10715;48.546;9.896;2023-01-15T09:46:16;3.60;99.90
21115;DHT22;10715;48.546;9.896;2023-01-15T09:49:00;3.60;99.90
21115;DHT22;10715;48.546;9.896;2023-01-15T09:57:31;3.70;99.90
21115;DHT22;10715;48.546;9.896;2023-01-15T09:59:58;3.70;99.90
21115;DHT22;10715;48.546;9.896;2023-01-15T10:02:44;3.70;99.90
21115;DHT22;10715;48.546;9.896;2023-01-15T10:05:22;3.70;99.90
21115;DHT22;10715;48.546;9.896;2023-01-15T10:10:25;3.80;99.90
21115;DHT22;10715;48.546;9.896;2023-01-15T10:12:57;3.70;99.90
21115;DHT22;10715;48.546;9.896;2023-01-15T10:15:45;3.70;99.90
21115;DHT22;10715;48.546;9.896;2023-01-15T10:18:21;3.70;99.90
21115;DHT22;10715;48.546;9.896;2023-01-15T10:23:34;3.70;99.90
21115;DHT22;10715;48.546;9.896;2023-01-15T10:26:13;3.80;99.90
21115;DHT22;10715;48.546;9.896;2023-01-15T10:42:43;3.90;99.90
21115;DHT22;10715;48.546;9.896;2023-01-15T10:48:08;3.90;99.90
21115;DHT22;10715;48.546;9.896;2023-01-15T10:50:36;4.00;99.90
21115;DHT22;10715;48.546;9.896;2023-01-15T10:55:52;4.00;99.90
21115;DHT22;10715;48.546;9.896;2023-01-15T11:00:49;4.00;99.90
21115;DHT22;10715;48.546;9.896;2023-01-15T11:03:21;4.00;99.90
21115;DHT22;10715;48.546;9.896;2023-01-15T11:05:47;4.00;99.90
21115;DHT22;10715;48.546;9.896;2023-01-15T11:08:22;4.00;99.90
21115;DHT22;10715;48.546;9.896;2023-01-15T11:11:02;3.90;99.90
21115;DHT22;10715;48.546;9.896;2023-01-15T11:13:30;3.90;99.90
21115;DHT22;10715;48.546;9.896;2023-01-15T11:16:22;3.90;99.90
21115;DHT22;10715;48.546;9.896;2023-01-15T11:19:24;3.80;99.90
21115;DHT22;10715;48.546;9.896;2023-01-15T11:22:12;3.70;99.90
21115;DHT22;10715;48.546;9.896;2023-01-15T11:24:47;3.70;99.90
21115;DHT22;10715;48.546;9.896;2023-01-15T11:27:16;3.50;99.90
21115;DHT22;10715;48.546;9.896;2023-01-15T11:29:44;3.50;99.90
21115;DHT22;10715;48.546;9.896;2023-01-15T11:32:36;3.40;99.90
21115;DHT22;10715;48.546;9.896;2023-01-15T11:35:16;3.30;99.90
21115;DHT22;10715;48.546;9.896;2023-01-15T11:37:42;3.20;99.90
21115;DHT22;10715;48.546;9.896;2023-01-15T11:40:21;3.10;99.90
21115;DHT22;10715;48.546;9.896;2023-01-15T11:42:50;3.00;99.90
21115;DHT22;10715;48.546;9.896;2023-01-15T11:45:46;3.00;99.90
21115;DHT22;10715;48.546;9.896;2023-01-15T11:48:41;2.90;99.90
21115;DHT22;10715;48.546;9.896;2023-01-15T11:51:27;2.90;99.90
21115;DHT22;10715;48.546;9.896;2023-01-15T11:53:59;3.00;99.90
21115;DHT22;10715;48.546;9.896;2023-01-15T11:56:27;3.00;99.90
21115;DHT22;10715;48.546;9.896;2023-01-15T11:58:56;3.00;99.90
21115;DHT22;10715;48.546;9.896;2023-01-15T12:01:34;3.10;99.90
21115;DHT22;10715;48.546;9.896;2023-01-15T12:04:03;3.10;99.90
21115;DHT22;10715;48.546;9.896;2023-01-15T12:06:30;3.20;99.90
21115;DHT22;10715;48.546;9.896;2023-01-15T12:09:37;3.10;99.90
21115;DHT22;10715;48.546;9.896;2023-01-15T12:17:50;3.10;99.90
21115;DHT22;10715;48.546;9.896;2023-01-15T12:20:32;3.10;99.90
21115;DHT22;10715;48.546;9.896;2023-01-15T12:26:26;3.10;99.90
21115;DHT22;10715;48.546;9.896;2023-01-15T12:29:12;3.00;99.90
21115;DHT22;10715;48.546;9.896;2023-01-15T12:34:28;2.40;99.90
21115;DHT22;10715;48.546;9.896;2023-01-15T12:37:04;2.10;99.90
21115;DHT22;10715;48.546;9.896;2023-01-15T12:39:35;2.00;99.90
21115;DHT22;10715;48.546;9.896;2023-01-15T12:42:08;1.90;99.90
21115;DHT22;10715;48.546;9.896;2023-01-15T12:45:08;1.80;99.90
21115;DHT22;10715;48.546;9.896;2023-01-15T12:52:43;1.60;99.90
21115;DHT22;10715;48.546;9.896;2023-01-15T12:55:18;1.60;99.90
21115;DHT22;10715;48.546;9.896;2023-01-15T12:57:49;1.60;99.90
21115;DHT22;10715;48.546;9.896;2023-01-15T13:03:22;1.60;99.90
21115;DHT22;10715;48.546;9.896;2023-01-15T13:05:57;1.60;99.90
21115;DHT22;10715;48.546;9.896;2023-01-15T13:08:24;1.60;99.90
21115;DHT22;10715;48.546;9.896;2023-01-15T13:10:52;1.60;99.90
21115;DHT22;10715;48.546;9.896;2023-01-15T13:20:51;1.70;99.90
21115;DHT22;10715;48.546;9.896;2023-01-15T13:32:20;1.90;99.90
21115;DHT22;10715;48.546;9.896;2023-01-15T13:37:49;1.90;99.90
21115;DHT22;10715;48.546;9.896;2023-01-15T13:42:48;1.90;99.90
21115;DHT22;10715;48.546;9.896;2023-01-15T13:45:39;1.90;99.90
21115;DHT22;10715;48.546;9.896;2023-01-15T13:48:15;1.90;99.90
21115;DHT22;10715;48.546;9.896;2023-01-15T13:50:54;1.90;99.90
21115;DHT22;10715;48.546;9.896;2023-01-15T13:56:02;1.90;99.90
21115;DHT22;10715;48.546;9.896;2023-01-15T13:58:38;1.90;99.90
21115;DHT22;10715;48.546;9.896;2023-01-15T14:09:25;1.80;99.90
21115;DHT22;10715;48.546;9.896;2023-01-15T14:22:38;1.90;99.90
21115;DHT22;10715;48.546;9.896;2023-01-15T14:31:27;1.90;99.90
21115;DHT22;10715;48.546;9.896;2023-01-15T14:37:04;1.90;99.90
21115;DHT22;10715;48.546;9.896;2023-01-15T14:39:56;2.00;99.90
21115;DHT22;10715;48.546;9.896;2023-01-15T14:42:29;2.00;99.90
21115;DHT22;10715;48.546;9.896;2023-01-15T14:47:51;2.00;99.90
21115;DHT22;10715;48.546;9.896;2023-01-15T14:52:55;2.00;99.90
21115;DHT22;10715;48.546;9.896;2023-01-15T14:55:23;2.00;99.90
21115;DHT22;10715;48.546;9.896;2023-01-15T15:00:51;2.10;99.90
21115;DHT22;10715;48.546;9.896;2023-01-15T15:03:21;2.00;99.90
21115;DHT22;10715;48.546;9.896;2023-01-15T15:05:51;2.10;99.90
21115;DHT22;10715;48.546;9.896;2023-01-15T15:08:18;2.10;99.90
21115;DHT22;10715;48.546;9.896;2023-01-15T15:10:49;2.00;99.90
21115;DHT22;10715;48.546;9.896;2023-01-15T15:16:30;1.80;99.90
21115;DHT22;10715;48.546;9.896;2023-01-15T15:19:01;1.70;99.90
21115;DHT22;10715;48.546;9.896;2023-01-15T15:21:32;1.60;99.90
21115;DHT22;10715;48.546;9.896;2023-01-15T15:24:22;1.50;99.90
21115;DHT22;10715;48.546;9.896;2023-01-15T15:26:50;1.40;99.90
21115;DHT22;10715;48.546;9.896;2023-01-15T15:29:17;1.30;99.90
21115;DHT22;10715;48.546;9.896;2023-01-15T15:31:49;1.20;99.90
21115;DHT22;10715;48.546;9.896;2023-01-15T15:34:31;1.20;99.90
21115;DHT22;10715;48.546;9.896;2023-01-15T15:37:01;1.10;99.90
21115;DHT22;10715;48.546;9.896;2023-01-15T15:39:44;1.00;99.90
21115;DHT22;10715;48.546;9.896;2023-01-15T15:42:18;1.00;99.90
21115;DHT22;10715;48.546;9.896;2023-01-15T15:45:16;0.90;99.90
21115;DHT22;10715;48.546;9.896;2023-01-15T15:48:31;0.80;99.90
21115;DHT22;10715;48.546;9.896;2023-01-15T15:54:19;0.60;99.90
21115;DHT22;10715;48.546;9.896;2023-01-15T15:56:47;0.50;99.90
21115;DHT22;10715;48.546;9.896;2023-01-15T15:59:43;0.50;99.90
21115;DHT22;10715;48.546;9.896;2023-01-15T16:02:16;0.40;99.90
21115;DHT22;10715;48.546;9.896;2023-01-15T16:04:51;0.40;99.90
21115;DHT22;10715;48.546;9.896;2023-01-15T16:07:31;0.40;99.90
21115;DHT22;10715;48.546;9.896;2023-01-15T16:10:31;0.30;99.90
21115;DHT22;10715;48.546;9.896;2023-01-15T16:13:00;0.30;99.90
21115;DHT22;10715;48.546;9.896;2023-01-15T16:15:31;0.20;99.90
21115;DHT22;10715;48.546;9.896;2023-01-15T16:17:59;0.20;99.90
21115;DHT22;10715;48.546;9.896;2023-01-15T16:20:26;0.20;99.90
21115;DHT22;10715;48.546;9.896;2023-01-15T16:23:00;0.20;99.90
21115;DHT22;10715;48.546;9.896;2023-01-15T16:25:39;0.20;99.90
21115;DHT22;10715;48.546;9.896;2023-01-15T16:28:06;0.20;99.90
21115;DHT22;10715;48.546;9.896;2023-01-15T16:31:02;0.10;99.90
21115;DHT22;10715;48.546;9.896;2023-01-15T16:33:28;0.10;99.90
21115;DHT22;10715;48.546;9.896;2023-01-15T16:35:58;0.00;99.90
21115;DHT22;10715;48.546;9.896;2023-01-15T16:38:25;0.00;99.90
21115;DHT22;10715;48.546;9.896;2023-01-15T16:40:51;-0.10;99.90
21115;DHT22;10715;48.546;9.896;2023-01-15T16:43:22;-0.10;99.90
21115;DHT22;10715;48.546;9.896;2023-01-15T16:50:48;-0.20;99.90
21115;DHT22;10715;48.546;9.896;2023-01-15T16:53:43;-0.20;99.90
21115;DHT22;10715;48.546;9.896;2023-01-15T16:59:00;-0.30;99.90
21115;DHT22;10715;48.546;9.896;2023-01-15T17:01:38;-0.30;99.90
21115;DHT22;10715;48.546;9.896;2023-01-15T17:06:43;-0.50;99.90
21115;DHT22;10715;48.546;9.896;2023-01-15T17:09:13;-0.60;99.90
21115;DHT22;10715;48.546;9.896;2023-01-15T17:11:40;-0.60;99.90
21115;DHT22;10715;48.546;9.896;2023-01-15T17:14:18;-0.60;99.90
21115;DHT22;10715;48.546;9.896;2023-01-15T17:16:44;-0.60;99.90
21115;DHT22;10715;48.546;9.896;2023-01-15T17:19:10;-0.70;99.90
21115;DHT22;10715;48.546;9.896;2023-01-15T17:21:36;-0.70;99.90
21115;DHT22;10715;48.546;9.896;2023-01-15T17:24:07;-0.70;99.90
21115;DHT22;10715;48.546;9.896;2023-01-15T17:26:33;-0.80;99.90
21115;DHT22;10715;48.546;9.896;2023-01-15T17:28:59;-0.80;99.90
21115;DHT22;10715;48.546;9.896;2023-01-15T17:31:26;-0.80;99.90
21115;DHT22;10715;48.546;9.896;2023-01-15T17:33:53;-0.80;99.90
21115;DHT22;10715;48.546;9.896;2023-01-15T17:36:19;-0.80;99.90
21115;DHT22;10715;48.546;9.896;2023-01-15T17:38:45;-0.90;99.90
21115;DHT22;10715;48.546;9.896;2023-01-15T17:41:16;-0.90;99.90
21115;DHT22;10715;48.546;9.896;2023-01-15T17:43:42;-0.90;99.90
21115;DHT22;10715;48.546;9.896;2023-01-15T17:46:08;-0.90;99.90
21115;DHT22;10715;48.546;9.896;2023-01-15T17:48:34;-1.00;99.90
21115;DHT22;10715;48.546;9.896;2023-01-15T17:51:04;-1.00;99.90
21115;DHT22;10715;48.546;9.896;2023-01-15T17:53:31;-1.00;99.90
21115;DHT22;10715;48.546;9.896;2023-01-15T17:56:02;-1.00;99.90
21115;DHT22;10715;48.546;9.896;2023-01-15T17:58:47;-1.00;99.90
21115;DHT22;10715;48.546;9.896;2023-01-15T18:01:45;-1.10;99.90
21115;DHT22;10715;48.546;9.896;2023-01-15T18:04:49;-1.10;99.90
21115;DHT22;10715;48.546;9.896;2023-01-15T18:07:37;-1.20;99.90
21115;DHT22;10715;48.546;9.896;2023-01-15T18:10:09;-1.20;99.90
21115;DHT22;10715;48.546;9.896;2023-01-15T18:12:41;-1.20;99.90
21115;DHT22;10715;48.546;9.896;2023-01-15T18:15:07;-1.20;99.90
21115;DHT22;10715;48.546;9.896;2023-01-15T18:17:33;-1.10;99.90
21115;DHT22;10715;48.546;9.896;2023-01-15T18:19:59;-1.20;99.90
21115;DHT22;10715;48.546;9.896;2023-01-15T18:22:24;-1.20;99.90
21115;DHT22;10715;48.546;9.896;2023-01-15T18:24:50;-1.20;99.90
21115;DHT22;10715;48.546;9.896;2023-01-15T18:27:16;-1.20;99.90
21115;DHT22;10715;48.546;9.896;2023-01-15T18:29:41;-1.20;99.90
21115;DHT22;10715;48.546;9.896;2023-01-15T18:32:08;-1.30;99.90
21115;DHT22;10715;48.546;9.896;2023-01-15T18:34:35;-1.30;99.90
21115;DHT22;10715;48.546;9.896;2023-01-15T18:37:01;-1.20;99.90
21115;DHT22;10715;48.546;9.896;2023-01-15T18:39:27;-1.20;99.90
21115;DHT22;10715;48.546;9.896;2023-01-15T18:41:54;-1.20;99.90
21115;DHT22;10715;48.546;9.896;2023-01-15T18:44:22;-1.20;99.90
21115;DHT22;10715;48.546;9.896;2023-01-15T18:47:09;-1.20;99.90
21115;DHT22;10715;48.546;9.896;2023-01-15T18:49:40;-1.20;99.90
21115;DHT22;10715;48.546;9.896;2023-01-15T18:52:06;-1.20;99.90
21115;DHT22;10715;48.546;9.896;2023-01-15T18:54:52;-1.10;99.90
21115;DHT22;10715;48.546;9.896;2023-01-15T18:57:19;-1.10;99.90